AirNav   Duncan Aviation - Near you to keep you flying
 
 1450 users online  

UT76 LR Wasatch Heliport
Huntsville, Utah, USA


FAA INFORMATION EFFECTIVE 02 DECEMBER 2021

Location

FAA Identifier: UT76
Lat/Long: 41-14-56.3000N 111-46-36.2000W
41-14.938333N 111-46.603333W
41.2489722,-111.7767222
(estimated)
Elevation: 4938 ft. / 1505 m (estimated)
From city: 1 mile SW of HUNTSVILLE, UT
Time zone: UTC +0 (year round; does not observe DST)
Zip code: 84317

Heliport Operations

Heliport use: Private use. Permission required prior to landing
Activation date: 04/2021
Control tower: no
ARTCC: SALT LAKE CITY CENTER
FSS: CEDAR CITY FLIGHT SERVICE STATION
Attendance: 
Wind indicator: no
Segmented circle: no

Heliport Communications

CTAF: 122.9
WX ASOS at OGD (11 nm W): PHONE 801-622-5600

Nearby radio navigation aids

VOR radial/distance  VOR name  Freq  Var
OGDr070/14.6OGDEN VORTAC115.7014E
TCHr005/25.7WASATCH VORTAC116.8016E
EVWr255/33.0EVANSTON VOR/DME109.6013E
LHOr148/34.3BRIGHAM CITY VOR/DME112.9014E

Heliport Services

Airframe service: NONE
Powerplant service: NONE
Bottled oxygen: NONE
Bulk oxygen: NONE

Runway Information

Helipad H1

Dimensions: 30 x 30 ft. / 9 x 9 m
Surface: asphalt/concrete, in good condition
Operational restrictions: TLOF 30X30 FT; FATO 110X110 FT.
Latitude: 41-14.938333N
Longitude: 111-46.603333W
Elevation: 4938.0 ft.
Traffic pattern: leftleft

Heliport Ownership and Management from official FAA records

Ownership: Privately-owned
Owner: US FOREST SERVICE
507 25TH STREET, SUITE 103
OGDEN, UT 84401
Phone 801-725-6985
Manager: LEE RACKHAM
507 25TH STREET, SUITE 103
OGDEN, UT 84401
Phone 801-725-6985

Heliport Operational Statistics

Aircraft based on the field: 1
Helicopters: 1
    

Instrument Procedures

There are no published instrument procedures at UT76.

Some nearby airports with instrument procedures:

KOGD - Ogden-Hinckley Airport (11 nm W)
KHIF - Hill Air Force Base (12 nm SW)
KBMC - Brigham City Regional Airport (22 nm NW)
KSLC - Salt Lake City International Airport (29 nm S)
KLGU - Logan-Cache Airport (33 nm N)
 
Loc | Ops | Rwys | IFR | FBO | Links
Com | Nav | Svcs | Stats | Notes
Aerial photo
No photo
 
Airport distance calculator
Flying to LR Wasatch Heliport? Find the distance to fly.

From to UT76

Sunrise and sunset
Times for 07-Dec-2021
 Zulu (UTC)
Morning civil twilight14:09
Sunrise14:40
Sunset23:57
Evening civil twilight00:28

Current date and time
Zulu (UTC)  07-Dec-2021 17:30:39
 
METAR
KOGD 
11nm W 
071653Z 00000KT 10SM BKN060 OVC080 05/M02 A3008 RMK AO2 SLP183 T00501022
KHIF 
12nm SW 
071658Z AUTO 00000KT 10SM OVC055 03/M03 A3007 RMK AO2 SLP183 T00341026
KBMC 
22nm NW 
071715Z AUTO 00000KT 10SM OVC080 05/M02 A3010 RMK AO1 T00511017
TAF
KOGD 
11nm W 
071120Z 0712/0812 17004KT P6SM OVC070 FM071900 24005KT P6SM FEW100 FM080200 17003KT P6SM SCT250
KHIF 
12nm SW 
071613Z 0716/0820 34006KT 9999 BKN060 QNH2999INS BECMG 0719/0720 28006KT 9999 SCT060 QNH3003INS BECMG 0802/0803 13009KT 9999 FEW080 QNH3006INS TX07/0722Z TN02/0716Z
NOTAMs
Click for the latest NOTAMs
NOTAMs are issued by the DoD/FAA and will open in a separate window not controlled by AirNav.

 

 
 

Would you like to see your business listed on this page?

 If your business provides an interesting product or service to pilots, flight crews, aircraft, or users of the LR Wasatch Heliport, you should consider listing it here.  To start the listing process, click on the button below
 
Add a business
 

Other Pages about LR Wasatch Heliport

Update a link
 
Copyright © AirNav, LLC. All rights reserved. Privacy Policy  Contact